ORBI/SDA METAR and TAF weather

Enter ICAO airport designator
Station Type Date Time Source
ORBI METAR 2020/07/15 09:00 UTC NOAA

ORBI 150900Z 26011KT 230V290 CAVOK 44/11 Q1002 NOSIG


Station Type Date Time Source
ORBI Decoded METAR 2020/07/15 09:00 UTC NOAA

Station name not available
Jul 15, 2020 - 05:00 AM EDT / 2020.07.15 0900 UTC
Wind: from the W (260 degrees) at 13 MPH (11 KT) (direction variable):0
Visibility: greater than 7 mile(s):0
Temperature: 111 F (44 C)
Dew Point: 51 F (11 C)
Relative Humidity: 14%
Pressure (altimeter): 29.59 in. Hg (1002 hPa)
ob: ORBI 150900Z 26011KT 230V290 CAVOK 44/11 Q1002 NOSIG
cycle: 9

Station Type Date Time Source
ORBI TAF 2020/07/15 06:45 UTC NOAA

TAF ORBI 150400Z 1506/1606 VRB03KT 8000 NSC
BECMG 1507/1509 32010KT

Example: see airport list